createdAt,value
2018-08-18T00:01:17.885Z,20.80
2018-08-18T00:03:51.546Z,19.15
2018-08-18T00:06:25.412Z,16.58
2018-08-18T00:08:59.254Z,18.30
2018-08-18T00:11:33.712Z,18.77
2018-08-18T00:14:08.275Z,21.10
2018-08-18T00:16:42.109Z,18.02
2018-08-18T00:19:17.426Z,18.40
2018-08-18T00:21:51.111Z,19.52
2018-08-18T00:24:24.854Z,20.92
2018-08-18T00:26:58.636Z,19.40
2018-08-18T00:29:32.460Z,19.70
2018-08-18T00:32:06.214Z,22.30
2018-08-18T00:34:39.994Z,19.52
2018-08-18T00:37:14.041Z,20.77
2018-08-18T00:39:48.685Z,20.92
2018-08-18T00:42:22.559Z,22.30
2018-08-18T00:44:57.075Z,21.10
2018-08-18T00:47:30.888Z,22.83
2018-08-18T00:50:05.523Z,22.55
2018-08-18T00:52:39.357Z,23.00
2018-08-18T00:55:13.193Z,23.08
2018-08-18T00:57:46.993Z,23.00
2018-08-18T01:00:20.813Z,23.10
2018-08-18T01:02:55.275Z,23.50
2018-08-18T01:05:29.077Z,24.87
2018-08-18T01:08:03.599Z,24.45
2018-08-18T01:10:38.245Z,23.80
2018-08-18T01:13:12.098Z,24.30
2018-08-18T01:15:45.933Z,25.70
2018-08-18T01:18:19.868Z,24.05
2018-08-18T01:20:54.358Z,25.42
2018-08-18T01:23:28.177Z,25.37
2018-08-18T01:26:01.959Z,26.05
2018-08-18T01:28:35.558Z,23.52
2018-08-18T01:31:10.318Z,23.42
2018-08-18T01:33:44.823Z,22.58
2018-08-18T01:36:20.240Z,22.83
2018-08-18T01:38:54.706Z,24.45
2018-08-18T01:41:28.427Z,22.23
2018-08-18T01:44:02.267Z,23.75
2018-08-18T01:46:36.050Z,24.17
2018-08-18T01:49:09.874Z,23.55
2018-08-18T01:51:43.696Z,24.02
2018-08-18T01:54:17.354Z,22.95
2018-08-18T01:56:51.245Z,24.00
2018-08-18T01:59:24.924Z,23.15
2018-08-18T02:01:59.490Z,24.60
2018-08-18T02:04:33.360Z,26.05
2018-08-18T02:07:07.217Z,25.80
2018-08-18T02:09:41.025Z,23.80
2018-08-18T02:12:14.793Z,24.95
2018-08-18T02:14:48.652Z,24.12
2018-08-18T02:17:22.358Z,24.45
2018-08-18T02:19:56.116Z,25.08
2018-08-18T02:22:29.911Z,24.70
2018-08-18T02:25:03.827Z,25.35
2018-08-18T02:27:37.567Z,26.98
2018-08-18T02:30:12.188Z,25.48
2018-08-18T02:32:45.987Z,26.30
2018-08-18T02:35:20.702Z,26.25
2018-08-18T02:37:54.417Z,25.05
2018-08-18T02:40:29.039Z,22.98
2018-08-18T02:43:02.795Z,25.02
2018-08-18T02:45:37.389Z,25.05
2018-08-18T02:48:11.058Z,25.30
2018-08-18T02:50:45.692Z,24.90
2018-08-18T02:53:22.316Z,24.40
2018-08-18T02:55:56.078Z,24.52
2018-08-18T02:58:30.017Z,25.20
2018-08-18T03:01:03.730Z,24.80
2018-08-18T03:03:37.560Z,25.98
2018-08-18T03:06:11.411Z,26.62
2018-08-18T03:08:45.144Z,23.42
2018-08-18T03:11:19.016Z,25.40
2018-08-18T03:13:53.640Z,25.30
2018-08-18T03:16:27.425Z,23.52
2018-08-18T03:19:01.076Z,23.87
2018-08-18T03:21:34.790Z,24.90
2018-08-18T03:24:08.658Z,25.35
2018-08-18T03:26:42.541Z,26.05
2018-08-18T03:29:16.368Z,23.45
2018-08-18T03:31:50.220Z,24.65
2018-08-18T03:34:23.919Z,25.90
2018-08-18T03:36:57.622Z,24.85
2018-08-18T03:39:31.511Z,25.65
2018-08-18T03:42:05.338Z,26.15
2018-08-18T03:44:39.052Z,27.13
2018-08-18T03:47:12.825Z,26.25
2018-08-18T03:49:47.145Z,26.10
2018-08-18T03:52:21.005Z,26.33
2018-08-18T03:54:54.796Z,25.52
2018-08-18T03:57:29.337Z,26.33
2018-08-18T04:00:03.222Z,28.20
2018-08-18T04:02:36.998Z,29.60
2018-08-18T04:05:11.507Z,27.58
2018-08-18T04:07:45.173Z,27.75
2018-08-18T04:10:19.052Z,28.73
2018-08-18T04:12:52.884Z,29.27
2018-08-18T04:15:26.744Z,28.17
2018-08-18T04:18:00.595Z,28.77
2018-08-18T04:20:35.152Z,27.65
2018-08-18T04:23:09.663Z,29.48
2018-08-18T04:25:44.079Z,29.23
2018-08-18T04:28:17.807Z,28.77
2018-08-18T04:30:52.457Z,29.73
2018-08-18T04:33:26.324Z,28.83
2018-08-18T04:36:00.088Z,29.52
2018-08-18T04:38:33.944Z,28.33
2018-08-18T04:41:07.723Z,28.38
2018-08-18T04:43:42.439Z,28.15
2018-08-18T04:46:16.224Z,29.00
2018-08-18T04:48:50.779Z,29.60
2018-08-18T04:51:24.596Z,29.08
2018-08-18T04:53:58.352Z,27.85
2018-08-18T04:56:32.928Z,29.17
2018-08-18T04:59:06.725Z,28.40
2018-08-18T05:01:41.316Z,29.00
2018-08-18T05:04:15.204Z,28.38
2018-08-18T05:06:49.820Z,29.30
2018-08-18T05:09:24.517Z,29.10
2018-08-18T05:11:58.219Z,29.20
2018-08-18T05:14:31.996Z,28.75
2018-08-18T05:17:05.692Z,27.98
2018-08-18T05:19:40.244Z,28.00
2018-08-18T05:22:13.992Z,28.27
2018-08-18T05:24:48.670Z,30.05
2018-08-18T05:27:22.344Z,29.15
2018-08-18T05:29:56.161Z,25.98
2018-08-18T05:32:29.920Z,26.65
2018-08-18T05:35:03.888Z,27.10
2018-08-18T05:37:37.625Z,26.58
2018-08-18T05:40:11.430Z,27.00
2018-08-18T05:42:46.052Z,25.30
2018-08-18T05:45:22.837Z,25.23
2018-08-18T05:47:56.555Z,23.83
2018-08-18T05:50:31.153Z,24.80
2018-08-18T05:53:04.959Z,25.60
2018-08-18T05:55:39.608Z,24.23
2018-08-18T05:58:14.097Z,25.00
2018-08-18T06:00:48.646Z,25.83
2018-08-18T06:03:22.475Z,25.92
2018-08-18T06:05:56.228Z,23.90
2018-08-18T06:08:33.164Z,25.05
2018-08-18T06:11:06.930Z,24.60
2018-08-18T06:13:40.676Z,23.98
2018-08-18T06:16:14.575Z,23.35
2018-08-18T06:18:49.189Z,22.65
2018-08-18T06:21:23.877Z,22.75
2018-08-18T06:23:58.435Z,23.85
2018-08-18T06:26:32.184Z,23.75
2018-08-18T06:29:05.932Z,24.17
2018-08-18T06:31:39.693Z,25.12
2018-08-18T06:34:13.503Z,23.70
2018-08-18T06:36:47.407Z,24.92
2018-08-18T06:39:21.060Z,24.10
2018-08-18T06:41:54.935Z,22.55
2018-08-18T06:44:29.256Z,23.08
2018-08-18T06:47:03.097Z,24.27
2018-08-18T06:49:36.801Z,26.00
2018-08-18T06:52:10.716Z,23.90
2018-08-18T06:54:44.593Z,24.30
2018-08-18T06:57:18.450Z,24.37
2018-08-18T06:59:52.136Z,26.87
2018-08-18T07:02:27.038Z,24.95
2018-08-18T07:05:00.880Z,23.50
2018-08-18T07:07:35.340Z,22.92
2018-08-18T07:10:26.827Z,22.25
2018-08-18T07:13:00.523Z,22.62
2018-08-18T07:15:35.316Z,22.52
2018-08-18T07:18:09.144Z,24.17
2018-08-18T07:20:43.780Z,21.73
2018-08-18T07:23:17.674Z,23.12
2018-08-18T07:25:52.375Z,22.08
2018-08-18T07:28:26.937Z,22.50
2018-08-18T07:31:00.677Z,22.10
2018-08-18T07:33:35.370Z,22.87
2018-08-18T07:36:09.159Z,21.23
2018-08-18T07:38:42.864Z,22.03
2018-08-18T07:41:17.363Z,21.50
2018-08-18T07:43:51.147Z,23.05
2018-08-18T07:46:25.012Z,22.55
2018-08-18T07:48:59.538Z,21.48
2018-08-18T07:51:34.170Z,20.90
2018-08-18T07:54:08.818Z,22.75
2018-08-18T07:56:43.365Z,21.67
2018-08-18T07:59:18.015Z,22.23
2018-08-18T08:01:52.535Z,21.10
2018-08-18T08:04:26.455Z,22.87
2018-08-18T08:07:01.055Z,21.43
2018-08-18T08:09:34.921Z,23.90
2018-08-18T08:12:08.704Z,23.37
2018-08-18T08:14:42.544Z,20.80
2018-08-18T08:17:17.113Z,21.57
2018-08-18T08:19:50.943Z,23.17
2018-08-18T08:22:25.580Z,21.77
2018-08-18T08:25:00.887Z,21.80
2018-08-18T08:27:34.724Z,22.47
2018-08-18T08:30:09.294Z,21.50
2018-08-18T08:32:43.021Z,23.03
2018-08-18T08:35:16.845Z,22.07
2018-08-18T08:37:51.501Z,21.70
2018-08-18T08:40:25.260Z,21.07
2018-08-18T08:42:59.065Z,20.07
2018-08-18T08:45:33.603Z,21.33
2018-08-18T08:48:07.386Z,21.07
2018-08-18T08:50:41.152Z,21.33
2018-08-18T08:53:14.984Z,21.37
2018-08-18T08:55:49.504Z,21.60
2018-08-18T08:58:24.155Z,21.57
2018-08-18T09:00:59.021Z,20.63
2018-08-18T09:03:32.891Z,21.30
2018-08-18T09:06:07.575Z,21.70
2018-08-18T09:08:41.698Z,19.97
2018-08-18T09:11:16.235Z,20.27
2018-08-18T09:13:50.012Z,19.87
2018-08-18T09:16:25.189Z,19.80
2018-08-18T09:18:58.952Z,20.70
2018-08-18T09:21:32.624Z,33.57
2018-08-18T09:24:06.470Z,20.10
2018-08-18T09:26:40.305Z,21.90
2018-08-18T09:29:14.068Z,20.23
2018-08-18T09:31:48.667Z,19.10
2018-08-18T09:34:23.256Z,17.50
2018-08-18T09:36:57.048Z,19.10
2018-08-18T09:39:32.329Z,20.40
2018-08-18T09:42:06.184Z,18.90
2018-08-18T09:44:39.854Z,17.43
2018-08-18T09:47:14.372Z,19.53
2018-08-18T09:49:49.258Z,21.07
2018-08-18T09:52:23.009Z,18.30
2018-08-18T09:54:56.731Z,19.20
2018-08-18T09:57:30.660Z,18.30
2018-08-18T10:00:04.337Z,16.10
2018-08-18T10:02:38.812Z,15.07
2018-08-18T10:05:12.577Z,16.90
2018-08-18T10:07:46.420Z,16.33
2018-08-18T10:10:20.507Z,13.73
2018-08-18T10:12:54.346Z,15.13
2018-08-18T10:15:28.823Z,14.67
2018-08-18T10:18:03.430Z,14.43
2018-08-18T10:20:37.982Z,13.43
2018-08-18T10:23:12.536Z,14.90
2018-08-18T10:25:46.182Z,14.90
2018-08-18T10:28:20.001Z,14.77
2018-08-18T10:30:53.831Z,13.27
2018-08-18T10:33:27.719Z,14.47
2018-08-18T10:36:01.388Z,13.57
2018-08-18T10:38:35.252Z,14.70
2018-08-18T10:41:09.047Z,12.07
2018-08-18T10:43:42.935Z,14.07
2018-08-18T10:46:16.772Z,13.30
2018-08-18T10:48:50.576Z,11.20
2018-08-18T10:54:22.725Z,12.40
2018-08-18T10:56:56.570Z,13.57
2018-08-18T10:59:30.446Z,10.87
2018-08-18T11:02:04.159Z,10.83
2018-08-18T11:04:37.997Z,11.90
2018-08-18T11:07:11.796Z,11.50
2018-08-18T11:09:46.368Z,11.63
2018-08-18T11:12:21.013Z,11.47
2018-08-18T11:14:54.814Z,11.43
2018-08-18T11:17:29.496Z,12.40
2018-08-18T11:20:04.022Z,12.77
2018-08-18T11:22:43.724Z,11.70
2018-08-18T11:25:18.332Z,11.10
2018-08-18T11:27:52.154Z,12.37
2018-08-18T11:30:25.811Z,12.07
2018-08-18T11:32:59.527Z,10.57
2018-08-18T11:35:33.376Z,10.63
2018-08-18T11:38:07.219Z,11.20
2018-08-18T11:40:40.958Z,11.00
2018-08-18T11:43:14.838Z,11.10
2018-08-18T11:45:48.715Z,11.00
2018-08-18T11:48:22.463Z,11.67
2018-08-18T11:50:56.419Z,11.47
2018-08-18T11:53:30.232Z,10.50
2018-08-18T11:56:04.030Z,11.67
2018-08-18T11:58:37.940Z,11.30
2018-08-18T12:01:11.821Z,11.43
2018-08-18T12:03:45.626Z,10.50
2018-08-18T12:06:19.543Z,10.27
2018-08-18T12:08:54.149Z,10.50
2018-08-18T12:11:27.925Z,10.03
2018-08-18T12:14:03.184Z,10.03
2018-08-18T12:16:37.098Z,10.13
2018-08-18T12:19:11.619Z,9.73
2018-08-18T12:21:45.551Z,9.50
2018-08-18T12:24:19.371Z,8.70
2018-08-18T12:26:53.983Z,9.17
2018-08-18T12:29:28.532Z,8.93
2018-08-18T12:32:02.237Z,9.73
2018-08-18T12:34:36.804Z,9.33
2018-08-18T12:37:11.504Z,9.77
2018-08-18T12:39:45.142Z,8.70
2018-08-18T12:42:19.686Z,9.90
2018-08-18T12:44:53.426Z,13.33
2018-08-18T12:47:27.299Z,8.00
2018-08-18T12:50:02.003Z,8.23
2018-08-18T12:52:35.700Z,8.60
2018-08-18T12:55:09.485Z,9.97
2018-08-18T12:57:44.152Z,9.87
2018-08-18T13:00:18.648Z,9.10
2018-08-18T13:02:52.391Z,9.20
2018-08-18T13:05:26.160Z,7.97
2018-08-18T13:08:00.032Z,8.73
2018-08-18T13:10:34.574Z,8.70
2018-08-18T13:13:08.377Z,8.67
2018-08-18T13:15:42.912Z,8.47
2018-08-18T13:18:17.577Z,8.13
2018-08-18T13:20:51.543Z,8.17
2018-08-18T13:23:26.013Z,7.83
2018-08-18T13:25:59.897Z,7.93
2018-08-18T13:28:33.716Z,8.00
2018-08-18T13:31:07.571Z,8.17
2018-08-18T13:33:42.110Z,7.00
2018-08-18T13:36:17.148Z,8.20
2018-08-18T13:38:50.754Z,9.50
2018-08-18T13:41:26.145Z,7.77
2018-08-18T13:43:59.901Z,7.30
2018-08-18T13:46:33.759Z,6.90
2018-08-18T13:49:07.531Z,7.97
2018-08-18T13:51:42.183Z,7.60
2018-08-18T13:54:16.715Z,7.07
2018-08-18T13:56:50.516Z,6.80
2018-08-18T13:59:25.141Z,7.90
2018-08-18T14:01:59.626Z,7.50
2018-08-18T14:04:34.244Z,7.07
2018-08-18T14:07:07.968Z,7.00
2018-08-18T14:09:41.780Z,6.80
2018-08-18T14:12:16.315Z,6.67
2018-08-18T14:14:50.020Z,7.37
2018-08-18T14:17:23.955Z,7.00
2018-08-18T14:19:57.638Z,6.73
2018-08-18T14:22:31.496Z,6.90
2018-08-18T14:25:05.311Z,8.13
2018-08-18T14:27:39.210Z,7.03
2018-08-18T14:30:13.780Z,7.00
2018-08-18T14:32:47.489Z,7.10
2018-08-18T14:35:23.052Z,6.87
2018-08-18T14:37:57.009Z,6.70
2018-08-18T14:40:30.811Z,6.63
2018-08-18T14:43:04.662Z,6.47
2018-08-18T14:45:38.501Z,7.07
2018-08-18T14:48:13.120Z,6.33
2018-08-18T14:50:46.904Z,6.70
2018-08-18T14:53:20.680Z,6.13
2018-08-18T14:55:54.505Z,6.67
2018-08-18T14:58:28.369Z,6.80
2018-08-18T15:01:02.889Z,6.10
2018-08-18T15:03:36.713Z,6.73
2018-08-18T15:06:11.343Z,5.77
2018-08-18T15:08:46.549Z,6.50
2018-08-18T15:11:20.273Z,6.13
2018-08-18T15:13:54.245Z,5.60
2018-08-18T15:16:28.965Z,6.60
2018-08-18T15:19:02.677Z,6.20
2018-08-18T15:21:36.610Z,6.20
2018-08-18T15:24:11.160Z,6.00
2018-08-18T15:26:45.748Z,5.97
2018-08-18T15:29:20.427Z,6.33
2018-08-18T15:31:54.206Z,6.20
2018-08-18T15:34:28.013Z,6.30
2018-08-18T15:37:03.412Z,6.50
2018-08-18T15:39:37.222Z,7.47
2018-08-18T15:42:11.024Z,7.00
2018-08-18T15:44:44.869Z,6.80
2018-08-18T15:47:19.489Z,6.30
2018-08-18T15:49:54.133Z,6.60
2018-08-18T15:52:27.973Z,6.57
2018-08-18T15:55:02.565Z,7.83
2018-08-18T15:57:36.385Z,6.97
2018-08-18T16:00:10.148Z,6.83
2018-08-18T16:02:43.988Z,7.20
2018-08-18T16:05:17.692Z,6.37
2018-08-18T16:07:52.315Z,6.37
2018-08-18T16:10:26.077Z,7.00
2018-08-18T16:12:59.833Z,6.30
2018-08-18T16:15:34.438Z,7.50
2018-08-18T16:18:08.932Z,7.50
2018-08-18T16:20:42.828Z,7.63
2018-08-18T16:23:18.253Z,7.67
2018-08-18T16:25:52.822Z,7.60
2018-08-18T16:28:26.684Z,7.17
2018-08-18T16:31:01.393Z,7.73
2018-08-18T16:33:35.876Z,6.73
2018-08-18T16:36:09.798Z,7.93
2018-08-18T16:38:43.566Z,7.27
2018-08-18T16:41:18.147Z,7.23
2018-08-18T16:43:51.928Z,7.00
2018-08-18T16:46:26.565Z,7.13
2018-08-18T16:49:01.128Z,8.30
2018-08-18T16:51:35.691Z,7.07
2018-08-18T16:54:09.520Z,6.93
2018-08-18T16:56:43.318Z,7.37
2018-08-18T16:59:16.962Z,8.40
2018-08-18T17:01:50.914Z,7.40
2018-08-18T17:04:24.716Z,7.20
2018-08-18T17:06:58.440Z,7.13
2018-08-18T17:09:32.885Z,7.20
2018-08-18T17:12:13.847Z,7.67
2018-08-18T17:14:47.647Z,7.53
2018-08-18T17:17:21.449Z,7.13
2018-08-18T17:19:55.164Z,6.87
2018-08-18T17:22:29.769Z,7.37
2018-08-18T17:25:04.313Z,8.17
2018-08-18T17:27:38.183Z,7.10
2018-08-18T17:30:11.979Z,7.13
2018-08-18T17:32:45.813Z,7.17
2018-08-18T17:35:19.559Z,7.20
2018-08-18T17:37:53.374Z,9.03
2018-08-18T17:40:27.936Z,8.83
2018-08-18T17:43:01.733Z,8.57
2018-08-18T17:45:35.552Z,7.60
2018-08-18T17:48:09.948Z,9.50
2018-08-18T17:50:43.761Z,8.20
2018-08-18T17:53:17.714Z,8.10
2018-08-18T17:55:52.461Z,8.40
2018-08-18T17:58:26.975Z,8.27
2018-08-18T18:01:00.657Z,8.67
2018-08-18T18:03:34.468Z,8.70
2018-08-18T18:06:08.342Z,8.70
2018-08-18T18:08:42.007Z,8.93
2018-08-18T18:11:15.872Z,9.73
2018-08-18T18:13:49.745Z,8.60
2018-08-18T18:16:23.596Z,9.20
2018-08-18T18:18:57.463Z,8.73
2018-08-18T18:21:32.135Z,8.87
2018-08-18T18:24:06.008Z,16.60
2018-08-18T18:26:39.752Z,9.27
2018-08-18T18:29:14.299Z,8.90
2018-08-18T18:31:48.038Z,9.30
2018-08-18T18:34:21.831Z,9.70
2018-08-18T18:36:55.600Z,8.90
2018-08-18T18:39:29.426Z,9.80
2018-08-18T18:42:03.711Z,9.63
2018-08-18T18:44:37.473Z,9.60
2018-08-18T18:47:11.367Z,8.80
2018-08-18T18:49:45.157Z,9.90
2018-08-18T18:52:19.036Z,9.20
2018-08-18T18:54:53.710Z,9.77
2018-08-18T18:57:27.303Z,9.90
2018-08-18T19:00:02.034Z,9.53
2018-08-18T19:02:35.764Z,10.70
2018-08-18T19:05:09.563Z,10.17
2018-08-18T19:07:43.376Z,9.50
2018-08-18T19:10:17.911Z,10.40
2018-08-18T19:12:51.759Z,11.50
2018-08-18T19:15:26.384Z,11.07
2018-08-18T19:18:00.220Z,10.30
2018-08-18T19:20:33.922Z,10.43
2018-08-18T19:23:07.643Z,10.53
2018-08-18T19:25:42.115Z,11.00
2018-08-18T19:28:15.967Z,11.10
2018-08-18T19:30:49.714Z,10.17
2018-08-18T19:33:24.369Z,11.50
2018-08-18T19:35:58.050Z,11.70
2018-08-18T19:38:31.899Z,10.73
2018-08-18T19:41:06.512Z,11.10
2018-08-18T19:43:40.140Z,11.53
2018-08-18T19:46:14.817Z,11.70
2018-08-18T19:48:48.525Z,10.10
2018-08-18T19:51:22.332Z,10.90
2018-08-18T19:53:56.952Z,11.10
2018-08-18T19:56:31.544Z,12.40
2018-08-18T19:59:05.348Z,11.10
2018-08-18T20:01:39.143Z,12.70
2018-08-18T20:04:13.073Z,11.67
2018-08-18T20:06:47.750Z,11.70
2018-08-18T20:09:21.573Z,10.97
2018-08-18T20:11:56.244Z,10.60
2018-08-18T20:14:30.004Z,112.20
2018-08-18T20:17:03.808Z,18.13
2018-08-18T20:19:37.609Z,13.40
2018-08-18T20:22:12.190Z,12.20
2018-08-18T20:24:46.906Z,13.90
2018-08-18T20:27:20.518Z,13.50
2018-08-18T20:29:54.342Z,12.80
2018-08-18T20:32:28.132Z,15.20
2018-08-18T20:35:01.985Z,12.43
2018-08-18T20:37:35.756Z,14.93
2018-08-18T20:40:10.388Z,12.73
2018-08-18T20:42:44.051Z,11.23
2018-08-18T20:45:17.957Z,12.50
2018-08-18T20:47:51.666Z,12.20
2018-08-18T20:50:25.396Z,13.10
2018-08-18T20:53:00.015Z,17.00
2018-08-18T20:55:33.809Z,11.33
2018-08-18T20:58:07.668Z,11.63
2018-08-18T21:00:41.440Z,13.40
2018-08-18T21:03:16.093Z,11.13
2018-08-18T21:05:50.750Z,11.77
2018-08-18T21:08:24.525Z,11.70
2018-08-18T21:10:58.323Z,12.23
2018-08-18T21:13:32.196Z,12.83
2018-08-18T21:16:05.992Z,11.27
2018-08-18T21:18:40.668Z,11.00
2018-08-18T21:21:15.235Z,10.93
2018-08-18T21:23:49.144Z,12.13
2018-08-18T21:26:22.916Z,11.93
2018-08-18T21:28:57.515Z,11.50
2018-08-18T21:31:31.204Z,11.13
2018-08-18T21:34:05.848Z,12.10
2018-08-18T21:36:41.148Z,11.60
2018-08-18T21:39:15.015Z,12.13
2018-08-18T21:41:49.680Z,12.30
2018-08-18T21:44:24.253Z,12.20
2018-08-18T21:46:57.961Z,11.07
2018-08-18T21:49:31.785Z,10.80
2018-08-18T21:52:05.571Z,10.90
2018-08-18T21:54:39.406Z,11.10
2018-08-18T21:57:13.752Z,12.30
2018-08-18T21:59:48.756Z,11.27
2018-08-18T22:02:22.521Z,11.47
2018-08-18T22:04:57.056Z,12.13
2018-08-18T22:07:30.848Z,11.40
2018-08-18T22:10:04.648Z,11.10
2018-08-18T22:12:39.317Z,12.40
2018-08-18T22:15:12.973Z,11.07
2018-08-18T22:17:46.699Z,11.90
2018-08-18T22:20:20.798Z,10.53
2018-08-18T22:22:55.303Z,10.23
2018-08-18T22:25:28.972Z,10.67
2018-08-18T22:28:03.616Z,10.27
2018-08-18T22:30:38.184Z,10.50
2018-08-18T22:33:12.002Z,11.00
2018-08-18T22:35:46.608Z,11.03
2018-08-18T22:38:20.340Z,11.63
2018-08-18T22:40:54.233Z,10.87
2018-08-18T22:43:28.192Z,10.50
2018-08-18T22:46:01.980Z,10.03
2018-08-18T22:48:36.551Z,10.57
2018-08-18T22:51:11.774Z,10.50
2018-08-18T22:53:45.640Z,11.53
2018-08-18T22:56:19.422Z,10.57
2018-08-18T22:58:54.044Z,10.37
2018-08-18T23:01:28.656Z,10.67
2018-08-18T23:04:02.371Z,10.13
2018-08-18T23:06:36.166Z,11.20
2018-08-18T23:09:09.999Z,8.97
2018-08-18T23:11:44.553Z,10.20
2018-08-18T23:14:18.328Z,9.97
2018-08-18T23:16:52.003Z,10.70
2018-08-18T23:19:26.617Z,10.80
2018-08-18T23:22:00.512Z,10.90
2018-08-18T23:24:34.388Z,10.80
2018-08-18T23:27:08.955Z,10.63
2018-08-18T23:29:44.311Z,9.93
2018-08-18T23:32:18.167Z,10.40
2018-08-18T23:34:51.972Z,11.27
2018-08-18T23:37:25.746Z,10.10
2018-08-18T23:39:59.661Z,10.77
2018-08-18T23:42:33.430Z,10.67
2018-08-18T23:45:07.192Z,11.10
2018-08-18T23:47:41.862Z,10.60
2018-08-18T23:50:16.293Z,9.10
2018-08-18T23:52:50.049Z,11.00
2018-08-18T23:55:23.935Z,10.07
2018-08-18T23:57:57.714Z,10.50
